Time;durP1;ratioP1;P1;durP2;ratioP2;P2;SDS_P1;SDS_P2;PMS_P1;PMS_P2;Temp;Humidity;BMP_temperature;BMP_pressure;BME280_temperature;BME280_humidity;BME280_pressure;Samples;Min_cycle;Max_cycle;Signal;HPM_P1;HPM_P2
2021/01/22 00:01:43;;;;;;;1.87;1.77;;;11.50;99.90;;;;;;5051639;28;20178;-76
2021/01/22 00:04:09;;;;;;;1.90;1.80;;;11.50;99.90;;;;;;5050627;28;20180;-75
2021/01/22 00:06:35;;;;;;;2.10;2.00;;;11.40;99.90;;;;;;5050879;28;20203;-76
2021/01/22 00:09:00;;;;;;;2.10;1.80;;;11.50;99.90;;;;;;5052738;28;20406;-75
2021/01/22 00:11:26;;;;;;;1.80;1.80;;;11.50;99.90;;;;;;5051654;28;20181;-75
2021/01/22 00:13:52;;;;;;;2.30;2.20;;;11.50;99.90;;;;;;5052081;28;20206;-75
2021/01/22 00:16:18;;;;;;;3.23;1.90;;;11.50;99.90;;;;;;5052173;28;20185;-75
2021/01/22 00:18:44;;;;;;;2.30;2.10;;;11.50;99.90;;;;;;5050686;28;20190;-75
2021/01/22 00:21:09;;;;;;;2.20;2.00;;;11.40;99.90;;;;;;5052382;28;20429;-75
2021/01/22 00:23:37;;;;;;;1.97;1.87;;;11.50;99.90;;;;;;5044835;28;20258;-75
2021/01/22 00:26:07;;;;;;;1.80;1.50;;;11.50;99.90;;;;;;5051817;28;20216;-75
2021/01/22 00:28:35;;;;;;;1.70;1.60;;;11.50;99.90;;;;;;5051127;28;20766;-75
2021/01/22 00:31:01;;;;;;;1.80;1.60;;;11.50;99.90;;;;;;5051709;28;20420;-75
2021/01/22 00:33:27;;;;;;;1.73;1.63;;;11.50;99.90;;;;;;5049174;28;20417;-76
2021/01/22 00:35:53;;;;;;;1.93;1.50;;;11.30;99.90;;;;;;5051485;28;20595;-74
2021/01/22 00:38:18;;;;;;;1.40;1.30;;;11.30;99.90;;;;;;5051865;28;20178;-74
2021/01/22 00:40:44;;;;;;;3.90;1.70;;;11.40;99.90;;;;;;5051297;28;20200;-74
2021/01/22 00:43:10;;;;;;;1.80;1.50;;;11.40;99.90;;;;;;5051671;28;20428;-75
2021/01/22 00:45:36;;;;;;;2.60;1.67;;;11.50;99.90;;;;;;5034402;28;20194;-75
2021/01/22 00:48:02;;;;;;;3.90;1.67;;;11.50;99.80;;;;;;5044443;28;20912;-75
2021/01/22 00:50:27;;;;;;;1.97;1.87;;;11.50;99.80;;;;;;5050218;28;20191;-75
2021/01/22 00:52:54;;;;;;;2.70;1.80;;;11.50;99.40;;;;;;5051818;28;20447;-75
2021/01/22 00:55:19;;;;;;;2.03;1.93;;;11.50;99.30;;;;;;5051886;28;20488;-75
2021/01/22 00:57:45;;;;;;;1.90;1.80;;;11.50;99.00;;;;;;5050864;28;20178;-75
2021/01/22 01:00:13;;;;;;;1.83;1.73;;;11.50;98.70;;;;;;5054708;28;20554;-75
2021/01/22 01:02:38;;;;;;;2.50;2.00;;;11.50;98.90;;;;;;5055268;28;20177;-75
2021/01/22 01:05:06;;;;;;;2.37;1.50;;;11.50;98.80;;;;;;5055948;28;20400;-75
2021/01/22 01:07:32;;;;;;;1.93;1.43;;;11.50;98.80;;;;;;5054670;28;20263;-75
2021/01/22 01:09:58;;;;;;;2.77;2.10;;;11.50;98.80;;;;;;5055959;28;20434;-75
2021/01/22 01:12:24;;;;;;;4.73;1.90;;;11.50;98.70;;;;;;5055582;28;20437;-75
2021/01/22 01:14:49;;;;;;;2.10;1.70;;;11.60;98.40;;;;;;5055236;28;20184;-75
2021/01/22 01:17:15;;;;;;;2.37;2.17;;;11.60;98.20;;;;;;5051164;28;20219;-75
2021/01/22 01:19:41;;;;;;;2.47;2.30;;;11.60;98.30;;;;;;5059698;28;20190;-75
2021/01/22 01:22:06;;;;;;;2.83;2.47;;;11.60;98.20;;;;;;5063275;28;20657;-75
2021/01/22 01:24:32;;;;;;;2.93;2.33;;;11.60;98.10;;;;;;5064269;28;20222;-75
2021/01/22 01:26:58;;;;;;;2.30;2.10;;;11.60;97.90;;;;;;5057482;28;20209;-75
2021/01/22 01:29:23;;;;;;;4.33;2.13;;;11.60;98.20;;;;;;5055000;28;20185;-76
2021/01/22 01:31:49;;;;;;;2.90;2.53;;;11.60;98.80;;;;;;5054718;28;20173;-75
2021/01/22 01:34:15;;;;;;;1.83;1.60;;;11.70;99.20;;;;;;5055141;28;20178;-75
2021/01/22 01:36:41;;;;;;;2.20;1.50;;;11.70;99.60;;;;;;5054581;28;20192;-75
2021/01/22 01:39:06;;;;;;;3.70;1.70;;;11.70;99.90;;;;;;5054916;28;20207;-75
2021/01/22 01:41:32;;;;;;;2.40;1.67;;;11.50;99.90;;;;;;5054576;28;20176;-75
2021/01/22 01:43:58;;;;;;;2.03;1.83;;;11.50;99.90;;;;;;5053656;28;20185;-75
2021/01/22 01:46:23;;;;;;;1.60;1.50;;;11.50;99.90;;;;;;5043612;28;20216;-75
2021/01/22 01:48:49;;;;;;;1.60;1.50;;;11.40;99.90;;;;;;5051162;28;20230;-75
2021/01/22 01:51:15;;;;;;;3.23;1.63;;;11.30;99.90;;;;;;5055384;28;20183;-75
2021/01/22 01:53:41;;;;;;;1.97;1.63;;;11.20;99.90;;;;;;5053660;28;20504;-75
2021/01/22 01:56:07;;;;;;;1.70;1.60;;;11.20;99.90;;;;;;5054836;28;20420;-75
2021/01/22 01:58:33;;;;;;;2.30;2.07;;;11.20;99.90;;;;;;5054001;28;20188;-75
2021/01/22 02:00:59;;;;;;;2.00;1.90;;;11.30;99.90;;;;;;5054896;28;20181;-75
2021/01/22 02:03:25;;;;;;;1.73;1.60;;;11.30;99.90;;;;;;5054530;28;20453;-75
2021/01/22 02:05:51;;;;;;;3.67;1.77;;;11.10;99.90;;;;;;5052674;28;20510;-75
2021/01/22 02:08:17;;;;;;;2.70;2.30;;;11.10;99.90;;;;;;5054825;28;20180;-75
2021/01/22 02:10:44;;;;;;;1.57;1.43;;;11.10;99.90;;;;;;5052621;28;20515;-75
2021/01/22 02:13:11;;;;;;;2.30;1.53;;;11.10;99.90;;;;;;5054187;28;20423;-75
2021/01/22 02:15:38;;;;;;;1.63;1.53;;;11.10;99.90;;;;;;5053622;28;20440;-75
2021/01/22 02:18:05;;;;;;;1.60;1.50;;;11.10;99.90;;;;;;5054274;28;20459;-75
2021/01/22 02:20:51;;;;;;;2.37;2.00;;;11.20;99.90;;;;;;5053604;28;20472;-76
2021/01/22 02:23:20;;;;;;;2.03;1.93;;;11.10;99.90;;;;;;5054785;28;20454;-75
2021/01/22 02:25:49;;;;;;;2.10;2.00;;;11.10;99.90;;;;;;5053246;28;20466;-75
2021/01/22 02:28:17;;;;;;;1.93;1.70;;;11.10;99.90;;;;;;5054654;28;20410;-75
2021/01/22 02:30:49;;;;;;;2.20;1.97;;;11.10;99.90;;;;;;5053704;28;20415;-75
2021/01/22 02:33:16;;;;;;;2.23;1.97;;;11.10;99.90;;;;;;5054402;28;20409;-74
2021/01/22 02:35:42;;;;;;;3.90;1.90;;;11.20;99.90;;;;;;5053910;28;20895;-75
2021/01/22 02:38:09;;;;;;;2.00;1.60;;;11.20;99.90;;;;;;5054077;28;20426;-75
2021/01/22 02:40:36;;;;;;;1.50;1.50;;;11.20;99.90;;;;;;5053201;28;20180;-75
2021/01/22 02:43:03;;;;;;;1.53;1.43;;;11.00;99.90;;;;;;5054272;28;20401;-74
2021/01/22 02:45:30;;;;;;;1.30;1.30;;;10.90;99.90;;;;;;5053500;28;20407;-75
2021/01/22 02:47:56;;;;;;;1.53;1.53;;;10.70;99.90;;;;;;5053660;28;20465;-75
2021/01/22 02:50:33;;;;;;;1.73;1.60;;;10.70;99.90;;;;;;5053940;28;20475;-75
2021/01/22 02:53:00;;;;;;;1.80;1.77;;;10.70;99.90;;;;;;5053812;28;20434;-75
2021/01/22 02:55:26;;;;;;;1.30;1.30;;;10.60;99.90;;;;;;5053689;28;20461;-75
2021/01/22 02:58:23;;;;;;;1.70;1.70;;;10.50;99.90;;;;;;5052855;28;20405;-75
2021/01/22 03:00:53;;;;;;;1.90;1.90;;;10.20;99.90;;;;;;5052871;28;20615;-75
2021/01/22 03:03:41;;;;;;;2.10;2.00;;;10.10;99.90;;;;;;5052741;28;20468;-75
2021/01/22 03:06:09;;;;;;;2.30;2.20;;;9.90;99.90;;;;;;5053054;28;20948;-75
2021/01/22 03:08:36;;;;;;;2.70;2.60;;;9.80;99.90;;;;;;5053030;28;20416;-75
2021/01/22 03:11:06;;;;;;;2.80;2.70;;;9.60;99.90;;;;;;5053691;28;20416;-75
2021/01/22 03:13:32;;;;;;;2.50;2.40;;;9.60;99.90;;;;;;5053205;28;20483;-75
2021/01/22 03:16:01;;;;;;;2.40;2.30;;;9.40;99.90;;;;;;5053102;28;20504;-75
2021/01/22 03:18:26;;;;;;;2.87;2.70;;;9.30;99.90;;;;;;5053116;28;20424;-75
2021/01/22 03:20:52;;;;;;;3.33;3.13;;;9.30;99.90;;;;;;5052432;28;20416;-75
2021/01/22 03:23:19;;;;;;;3.50;3.30;;;9.20;99.90;;;;;;5052820;28;20209;-75
2021/01/22 03:25:45;;;;;;;3.17;2.97;;;9.10;99.90;;;;;;5052368;28;20742;-75
2021/01/22 03:28:11;;;;;;;3.50;3.30;;;8.90;99.90;;;;;;5053464;28;20415;-75
2021/01/22 03:30:37;;;;;;;4.40;4.10;;;8.80;99.90;;;;;;5052522;28;20404;-75
2021/01/22 03:33:03;;;;;;;4.63;4.43;;;8.80;99.90;;;;;;5053243;28;20422;-75
2021/01/22 03:35:30;;;;;;;4.47;4.27;;;8.70;99.90;;;;;;5052783;28;20506;-75
2021/01/22 03:37:57;;;;;;;4.37;4.17;;;8.60;99.90;;;;;;5052407;28;20542;-75
2021/01/22 03:40:24;;;;;;;5.00;4.70;;;8.60;99.90;;;;;;5053144;28;20416;-75
2021/01/22 03:42:49;;;;;;;5.00;4.70;;;8.70;99.90;;;;;;5052280;28;20427;-75
2021/01/22 03:45:16;;;;;;;5.00;4.70;;;8.70;99.90;;;;;;5053042;28;20500;-75
2021/01/22 03:47:43;;;;;;;4.50;4.30;;;8.70;99.90;;;;;;5051603;28;20677;-75
2021/01/22 03:50:09;;;;;;;4.17;3.97;;;8.70;99.90;;;;;;5053026;28;20430;-75
2021/01/22 03:52:35;;;;;;;4.20;4.00;;;8.60;99.90;;;;;;5052280;28;20452;-75
2021/01/22 03:55:01;;;;;;;5.00;4.60;;;8.50;99.90;;;;;;5052791;28;20403;-75
2021/01/22 03:57:26;;;;;;;4.07;3.77;;;8.40;99.90;;;;;;5052789;28;20397;-75
2021/01/22 03:59:52;;;;;;;4.40;4.20;;;8.50;99.90;;;;;;5051742;28;20177;-75
2021/01/22 04:02:19;;;;;;;3.73;3.53;;;8.40;99.90;;;;;;5051758;28;20181;-75
2021/01/22 04:04:45;;;;;;;4.43;4.13;;;8.40;99.90;;;;;;5052079;28;20180;-75
2021/01/22 04:07:11;;;;;;;4.20;3.90;;;8.40;99.90;;;;;;5052289;28;20858;-75
2021/01/22 04:09:37;;;;;;;4.30;4.00;;;8.40;99.90;;;;;;5051881;28;20370;-76
2021/01/22 04:12:03;;;;;;;4.13;3.83;;;8.30;99.90;;;;;;5051349;28;20382;-75
2021/01/22 04:14:28;;;;;;;3.83;3.60;;;8.30;99.90;;;;;;5052106;28;20183;-75
2021/01/22 04:16:55;;;;;;;4.20;4.00;;;8.40;99.90;;;;;;5051527;28;20436;-75
2021/01/22 04:19:22;;;;;;;3.73;3.50;;;8.30;99.90;;;;;;5052396;28;20180;-75
2021/01/22 04:21:47;;;;;;;3.90;3.60;;;8.40;99.90;;;;;;5051559;28;20407;-75
2021/01/22 04:24:13;;;;;;;4.27;4.00;;;8.50;99.90;;;;;;5051908;28;20394;-75
2021/01/22 04:26:41;;;;;;;3.70;3.50;;;8.50;99.90;;;;;;5051369;28;20249;-75
2021/01/22 04:29:10;;;;;;;3.40;3.30;;;8.50;99.90;;;;;;5051927;28;20185;-75
2021/01/22 04:31:35;;;;;;;4.03;3.83;;;8.50;99.90;;;;;;5051667;28;20439;-75
2021/01/22 04:34:01;;;;;;;5.00;3.80;;;8.50;99.90;;;;;;5050648;28;20912;-75
2021/01/22 04:36:27;;;;;;;4.93;4.43;;;8.50;99.90;;;;;;5052127;28;20195;-77
2021/01/22 04:38:52;;;;;;;5.40;5.00;;;8.50;99.90;;;;;;5051291;28;20244;-77
2021/01/22 04:41:19;;;;;;;4.43;4.13;;;8.50;99.90;;;;;;5052175;28;20177;-77
2021/01/22 04:43:44;;;;;;;4.47;4.23;;;8.50;99.90;;;;;;5050771;28;20184;-77
2021/01/22 04:46:11;;;;;;;6.47;6.07;;;8.60;99.90;;;;;;5051877;28;20451;-77
2021/01/22 04:48:38;;;;;;;5.73;5.23;;;8.60;99.90;;;;;;5051590;28;20295;-77
2021/01/22 04:51:05;;;;;;;7.03;6.53;;;8.60;99.90;;;;;;5051986;28;20416;-77
2021/01/22 04:53:34;;;;;;;5.80;5.40;;;8.60;99.90;;;;;;5037807;28;20482;-77
2021/01/22 04:56:01;;;;;;;7.00;6.50;;;8.70;99.90;;;;;;5051776;28;20462;-77
2021/01/22 04:58:31;;;;;;;8.30;7.60;;;8.60;99.80;;;;;;5051820;28;20402;-77
2021/01/22 05:00:57;;;;;;;7.80;7.10;;;8.60;99.50;;;;;;5051216;28;20675;-77
2021/01/22 05:03:26;;;;;;;8.93;7.67;;;8.60;99.40;;;;;;5051920;28;20379;-77
2021/01/22 05:05:58;;;;;;;8.47;6.47;;;8.60;99.40;;;;;;5050769;28;20419;-77
2021/01/22 05:08:25;;;;;;;6.60;5.90;;;8.60;99.40;;;;;;5051868;28;20407;-77
2021/01/22 05:10:51;;;;;;;6.93;5.70;;;8.60;99.70;;;;;;5050876;28;20443;-77
2021/01/22 05:13:17;;;;;;;6.60;6.00;;;8.60;99.30;;;;;;5050558;28;20912;-77
2021/01/22 05:16:02;;;;;;;6.73;5.53;;;8.60;99.20;;;;;;5049125;28;20515;-77
2021/01/22 05:18:31;;;;;;;5.60;5.17;;;8.60;99.20;;;;;;5044899;28;20451;-77
2021/01/22 05:21:13;;;;;;;6.27;5.70;;;8.70;99.30;;;;;;5051447;28;20511;-77
2021/01/22 05:23:41;;;;;;;5.50;5.10;;;8.60;99.10;;;;;;5051594;28;20387;-77
2021/01/22 05:26:11;;;;;;;5.27;4.87;;;8.50;99.00;;;;;;5051718;28;20470;-77
2021/01/22 05:28:39;;;;;;;8.10;7.50;;;8.60;99.10;;;;;;5051992;28;20750;-77
2021/01/22 05:31:09;;;;;;;6.50;6.10;;;8.60;98.90;;;;;;5050994;28;20407;-77
2021/01/22 05:33:35;;;;;;;5.13;4.63;;;8.70;98.50;;;;;;5050469;28;20743;-77
2021/01/22 05:36:20;;;;;;;4.47;4.03;;;8.60;98.40;;;;;;5050630;28;20445;-77
2021/01/22 05:38:45;;;;;;;4.97;4.67;;;8.70;98.30;;;;;;5045154;28;20527;-77
2021/01/22 05:41:11;;;;;;;4.20;3.90;;;8.70;98.10;;;;;;5044539;28;20427;-77
2021/01/22 05:43:38;;;;;;;4.53;3.93;;;8.70;98.10;;;;;;5051823;28;20181;-77
2021/01/22 05:46:14;;;;;;;4.80;4.40;;;8.70;98.10;;;;;;5053492;28;20221;-77
2021/01/22 05:48:40;;;;;;;6.00;5.10;;;8.70;98.20;;;;;;5055090;28;20899;-77
2021/01/22 05:51:06;;;;;;;6.20;5.03;;;8.70;98.20;;;;;;5054927;28;20411;-77
2021/01/22 05:53:33;;;;;;;4.77;4.37;;;8.80;98.10;;;;;;5050970;28;20842;-77
2021/01/22 05:56:04;;;;;;;5.77;5.20;;;8.80;98.20;;;;;;5053853;28;20742;-77
2021/01/22 05:58:30;;;;;;;6.13;4.90;;;8.80;98.00;;;;;;5054785;28;20918;-77
2021/01/22 06:01:06;;;;;;;6.00;5.00;;;8.70;98.00;;;;;;5053442;28;20423;-77
2021/01/22 06:03:33;;;;;;;5.03;4.63;;;8.60;97.90;;;;;;5048496;28;20605;-77
2021/01/22 06:05:58;;;;;;;7.30;6.80;;;8.60;98.00;;;;;;5052832;28;20958;-77
2021/01/22 06:08:24;;;;;;;5.83;5.30;;;8.70;98.00;;;;;;5055107;28;20480;-77
2021/01/22 06:10:52;;;;;;;6.60;6.00;;;8.60;98.00;;;;;;5054198;28;20180;-77
2021/01/22 06:13:25;;;;;;;8.90;7.97;;;8.60;98.10;;;;;;5055201;28;20375;-77
2021/01/22 06:15:55;;;;;;;7.23;5.90;;;8.60;98.10;;;;;;5054398;28;20398;-77
2021/01/22 06:18:32;;;;;;;6.20;5.67;;;8.60;98.20;;;;;;5055227;28;20777;-77
2021/01/22 06:21:25;;;;;;;7.63;6.30;;;8.60;98.70;;;;;;5079537;28;20390;-77
2021/01/22 06:23:52;;;;;;;6.17;5.57;;;8.70;98.40;;;;;;5043474;28;20414;-77
2021/01/22 06:26:19;;;;;;;6.77;6.17;;;8.70;98.20;;;;;;5054589;28;20489;-77
2021/01/22 06:28:48;;;;;;;8.13;7.30;;;8.70;98.00;;;;;;5053579;28;20427;-77
2021/01/22 06:31:18;;;;;;;7.40;6.80;;;8.80;97.90;;;;;;5046519;28;20391;-77
2021/01/22 06:33:48;;;;;;;7.70;7.00;;;8.80;97.70;;;;;;5052713;28;20422;-77
2021/01/22 06:36:15;;;;;;;7.07;6.47;;;8.80;97.60;;;;;;5053563;28;20415;-77
2021/01/22 06:38:42;;;;;;;7.60;6.90;;;8.90;97.50;;;;;;5055057;28;20411;-77
2021/01/22 06:41:09;;;;;;;8.40;7.60;;;8.90;97.40;;;;;;5054743;28;20830;-77
2021/01/22 06:43:37;;;;;;;8.07;7.17;;;8.90;97.40;;;;;;5054585;28;20490;-77
2021/01/22 06:46:07;;;;;;;8.90;7.50;;;8.90;97.40;;;;;;5053877;28;20925;-77
2021/01/22 06:49:01;;;;;;;8.40;7.60;;;8.80;97.50;;;;;;5053688;28;20948;-77
2021/01/22 06:51:33;;;;;;;8.13;7.33;;;8.80;97.60;;;;;;5054362;28;20420;-77
2021/01/22 06:54:07;;;;;;;8.60;7.80;;;8.80;97.50;;;;;;5053301;28;20886;-77
2021/01/22 06:56:35;;;;;;;8.10;7.30;;;8.80;97.60;;;;;;5052176;28;20415;-78
2021/01/22 06:59:18;;;;;;;8.60;7.80;;;8.80;97.50;;;;;;5053360;28;20412;-77
2021/01/22 07:01:45;;;;;;;10.00;9.20;;;8.80;97.90;;;;;;5053354;28;20428;-77
2021/01/22 07:04:36;;;;;;;9.37;8.07;;;8.80;97.70;;;;;;5053854;28;20421;-77
2021/01/22 07:07:03;;;;;;;9.70;8.77;;;8.80;97.70;;;;;;5053567;28;20448;-77
2021/01/22 07:09:41;;;;;;;9.93;9.03;;;8.80;97.70;;;;;;5052975;28;20499;-78
2021/01/22 07:12:11;;;;;;;9.90;8.90;;;8.80;97.90;;;;;;5053120;28;20825;-77
2021/01/22 07:14:40;;;;;;;9.67;8.77;;;8.80;98.00;;;;;;5052135;28;20965;-78
2021/01/22 07:17:22;;;;;;;8.70;7.87;;;8.70;97.80;;;;;;5052519;28;21076;-77
2021/01/22 07:19:51;;;;;;;8.00;7.20;;;8.70;97.90;;;;;;5052842;28;20420;-77
2021/01/22 07:22:17;;;;;;;9.00;8.10;;;8.70;98.10;;;;;;5052861;28;20424;-73
2021/01/22 07:24:51;;;;;;;9.07;8.17;;;8.70;98.10;;;;;;5054799;28;20443;-80
2021/01/22 07:27:17;;;;;;;9.70;7.83;;;8.80;98.00;;;;;;5052981;28;20448;-80
2021/01/22 07:30:02;;;;;;;9.93;8.97;;;8.90;98.10;;;;;;5037414;28;20434;-80
2021/01/22 07:32:28;;;;;;;9.20;8.30;;;8.90;97.90;;;;;;5050568;28;20645;-80
2021/01/22 07:34:54;;;;;;;9.43;8.60;;;8.90;97.90;;;;;;5052005;28;20470;-80
2021/01/22 07:37:24;;;;;;;9.30;8.50;;;8.90;97.90;;;;;;5052999;28;20420;-80
2021/01/22 07:39:54;;;;;;;10.00;9.00;;;8.90;97.80;;;;;;5065056;28;20407;-80
2021/01/22 07:42:26;;;;;;;10.20;9.20;;;8.90;97.90;;;;;;5035393;28;20471;-80
2021/01/22 07:44:53;;;;;;;10.13;8.13;;;8.90;98.10;;;;;;5051834;28;20424;-80
2021/01/22 07:47:30;;;;;;;8.23;7.43;;;8.90;98.00;;;;;;5044140;28;20471;-80
2021/01/22 07:50:03;;;;;;;9.90;8.90;;;8.90;98.10;;;;;;5060860;28;20447;-80
2021/01/22 07:52:30;;;;;;;10.23;8.60;;;8.90;97.90;;;;;;5053057;28;20515;-80
2021/01/22 07:54:57;;;;;;;9.80;8.87;;;8.90;97.90;;;;;;5050835;28;20478;-80
2021/01/22 07:57:26;;;;;;;8.83;7.87;;;9.00;98.10;;;;;;5070734;28;20394;-80
2021/01/22 07:59:53;;;;;;;8.60;7.77;;;9.00;98.10;;;;;;5052549;28;20963;-80
2021/01/22 08:02:21;;;;;;;8.23;7.43;;;8.90;97.90;;;;;;5056770;28;20493;-75
2021/01/22 08:05:01;;;;;;;9.53;8.63;;;9.00;97.80;;;;;;5051524;28;20472;-75
2021/01/22 08:07:40;;;;;;;8.33;7.53;;;8.90;97.90;;;;;;5052779;28;20589;-74
2021/01/22 08:10:10;;;;;;;8.23;7.30;;;8.80;97.90;;;;;;5051549;28;20408;-74
2021/01/22 08:12:37;;;;;;;7.83;6.80;;;8.80;98.10;;;;;;5052084;28;20393;-73
2021/01/22 08:15:18;;;;;;;8.30;7.50;;;8.90;97.90;;;;;;5051497;28;20420;-73
2021/01/22 08:17:45;;;;;;;10.03;8.03;;;8.80;97.90;;;;;;5052694;28;20459;-74
2021/01/22 08:20:12;;;;;;;8.20;7.50;;;8.80;97.90;;;;;;5051760;28;20924;-72
2021/01/22 08:22:38;;;;;;;10.80;9.90;;;8.70;98.20;;;;;;5052438;28;20390;-74
2021/01/22 08:25:05;;;;;;;10.27;9.23;;;8.80;98.30;;;;;;5050200;28;20401;-74
2021/01/22 08:27:30;;;;;;;8.70;7.87;;;8.70;98.10;;;;;;5052229;28;20431;-74
2021/01/22 08:29:57;;;;;;;8.80;8.00;;;8.70;98.40;;;;;;5051800;28;20388;-75
2021/01/22 08:32:24;;;;;;;11.00;9.40;;;8.70;98.40;;;;;;5052143;28;20199;-76
2021/01/22 08:34:50;;;;;;;9.23;8.33;;;8.80;99.30;;;;;;5051226;28;20412;-77
2021/01/22 08:37:16;;;;;;;11.23;8.80;;;9.20;99.50;;;;;;5051968;28;20419;-76
2021/01/22 08:39:51;;;;;;;8.30;7.60;;;9.60;98.50;;;;;;5056063;28;20416;-76
2021/01/22 08:42:17;;;;;;;9.20;8.30;;;9.90;98.50;;;;;;5051208;28;20425;-76
2021/01/22 08:44:51;;;;;;;9.57;8.67;;;10.20;96.70;;;;;;5052112;28;20432;-76
2021/01/22 08:47:17;;;;;;;9.27;8.20;;;10.60;96.10;;;;;;5050814;28;20976;-76
2021/01/22 08:49:55;;;;;;;8.53;7.87;;;10.90;95.30;;;;;;5050885;28;20460;-76
2021/01/22 08:52:21;;;;;;;9.83;8.93;;;11.10;94.00;;;;;;5051716;28;20174;-76
2021/01/22 08:54:50;;;;;;;9.53;8.63;;;11.30;93.80;;;;;;5052348;28;20749;-76
2021/01/22 08:57:16;;;;;;;9.83;9.03;;;11.60;93.70;;;;;;5050384;28;20432;-77
2021/01/22 08:59:50;;;;;;;8.63;7.93;;;11.90;93.00;;;;;;5051242;28;20425;-76
2021/01/22 09:02:33;;;;;;;8.30;7.60;;;12.00;91.80;;;;;;5050554;28;20202;-76
2021/01/22 09:05:06;;;;;;;10.73;8.13;;;12.00;91.30;;;;;;5050938;28;20456;-76
2021/01/22 09:07:32;;;;;;;7.53;6.93;;;11.80;91.80;;;;;;5051516;28;20473;-76
2021/01/22 09:09:58;;;;;;;7.70;7.00;;;11.70;91.90;;;;;;5050790;28;20494;-76
2021/01/22 09:12:32;;;;;;;8.00;7.30;;;11.70;91.60;;;;;;5051999;28;20184;-76
2021/01/22 09:15:01;;;;;;;7.77;7.17;;;11.70;91.60;;;;;;5049532;28;20426;-80
2021/01/22 09:17:27;;;;;;;7.50;6.90;;;11.70;91.50;;;;;;5050513;28;20418;-79
2021/01/22 09:20:01;;;;;;;7.50;6.87;;;11.90;91.60;;;;;;5052154;28;20411;-81
2021/01/22 09:22:32;;;;;;;6.93;6.43;;;12.00;91.10;;;;;;5054241;28;20192;-81
2021/01/22 09:25:06;;;;;;;8.20;7.30;;;11.90;91.00;;;;;;5050897;28;20421;-81
2021/01/22 09:27:37;;;;;;;7.73;6.70;;;12.00;90.80;;;;;;5050979;28;20458;-80
2021/01/22 09:30:06;;;;;;;8.60;7.80;;;12.10;90.90;;;;;;5033558;28;20455;-81
2021/01/22 09:32:32;;;;;;;9.93;9.03;;;12.40;90.70;;;;;;5053883;28;20790;-82
2021/01/22 09:34:58;;;;;;;7.43;6.73;;;12.50;90.10;;;;;;5054068;28;20484;-81
2021/01/22 09:37:24;;;;;;;8.93;8.13;;;12.60;89.10;;;;;;5054704;28;20435;-82
2021/01/22 09:39:50;;;;;;;6.60;6.10;;;12.70;89.10;;;;;;5036975;28;20665;-81
2021/01/22 09:42:16;;;;;;;8.40;7.63;;;12.70;88.60;;;;;;5054839;28;20180;-81
2021/01/22 09:44:42;;;;;;;10.17;9.40;;;12.90;90.00;;;;;;5059203;28;20593;-81
2021/01/22 09:47:08;;;;;;;8.40;7.80;;;13.00;88.70;;;;;;5073044;28;20555;-81
2021/01/22 09:49:34;;;;;;;7.33;6.63;;;13.10;87.10;;;;;;5069353;28;20546;-81
2021/01/22 09:51:59;;;;;;;9.73;8.93;;;13.20;87.30;;;;;;5054971;28;20445;-81
2021/01/22 09:54:25;;;;;;;8.67;8.10;;;13.20;85.80;;;;;;5055350;28;20211;-81
2021/01/22 09:56:51;;;;;;;6.20;5.70;;;13.10;86.50;;;;;;5053680;28;20184;-82
2021/01/22 09:59:17;;;;;;;6.83;6.23;;;13.00;85.10;;;;;;5053801;28;20582;-81
2021/01/22 10:01:45;;;;;;;9.40;8.70;;;12.80;85.80;;;;;;5054175;28;20490;-81
2021/01/22 10:04:11;;;;;;;6.90;6.40;;;12.80;86.80;;;;;;5052264;28;21201;-81
2021/01/22 10:06:37;;;;;;;7.83;7.13;;;13.00;86.40;;;;;;5065690;28;20487;-81
2021/01/22 10:09:03;;;;;;;6.37;5.43;;;12.90;86.40;;;;;;5074559;28;20173;-81
2021/01/22 10:11:29;;;;;;;7.23;6.63;;;13.10;85.60;;;;;;5074149;28;20181;-81
2021/01/22 10:13:55;;;;;;;7.50;6.90;;;13.10;85.20;;;;;;5073439;28;20405;-82
2021/01/22 10:16:25;;;;;;;7.57;6.97;;;13.20;85.50;;;;;;5060656;28;20192;-82
2021/01/22 10:18:53;;;;;;;6.40;5.90;;;13.20;84.70;;;;;;5068928;28;20403;-83
2021/01/22 10:21:23;;;;;;;6.10;5.50;;;13.30;84.30;;;;;;5057324;28;20515;-78
2021/01/22 10:23:50;;;;;;;6.77;5.90;;;13.50;84.50;;;;;;5052511;28;20482;-77
2021/01/22 10:26:16;;;;;;;7.40;6.70;;;13.50;84.40;;;;;;5062053;28;20458;-81
2021/01/22 10:28:43;;;;;;;6.30;5.77;;;13.60;83.60;;;;;;5061951;28;20465;-81
2021/01/22 10:31:09;;;;;;;9.03;8.37;;;13.60;84.20;;;;;;5056824;28;20515;-82
2021/01/22 10:33:35;;;;;;;7.87;5.90;;;13.60;82.90;;;;;;5043230;28;20778;-82
2021/01/22 10:36:02;;;;;;;6.70;6.23;;;13.40;82.60;;;;;;5062522;28;20501;-84
2021/01/22 10:38:28;;;;;;;7.30;6.80;;;13.30;83.10;;;;;;5067601;28;20847;-83
2021/01/22 10:40:58;;;;;;;6.70;6.20;;;13.30;83.10;;;;;;5061113;28;20408;-84
2021/01/22 10:43:24;;;;;;;6.20;5.73;;;13.30;84.20;;;;;;5059303;28;20521;-83
2021/01/22 10:45:50;;;;;;;7.17;6.60;;;13.30;84.30;;;;;;5062618;28;20493;-83
2021/01/22 10:48:18;;;;;;;6.27;5.77;;;13.40;83.70;;;;;;5059358;28;20231;-87
2021/01/22 10:50:44;;;;;;;5.83;5.40;;;13.50;82.70;;;;;;5062444;28;20412;-78
2021/01/22 10:53:10;;;;;;;8.90;8.30;;;13.30;82.10;;;;;;5052445;28;20830;-78
2021/01/22 10:55:36;;;;;;;7.57;7.07;;;13.00;81.50;;;;;;5053633;28;20436;-78
2021/01/22 10:58:02;;;;;;;6.90;6.40;;;12.70;83.20;;;;;;5053183;28;20945;-78
2021/01/22 11:00:28;;;;;;;5.80;5.30;;;12.50;85.30;;;;;;5053386;28;20534;-78
2021/01/22 11:02:54;;;;;;;6.67;6.10;;;12.20;86.10;;;;;;5052988;28;20420;-78
2021/01/22 11:05:20;;;;;;;7.97;7.47;;;12.00;87.00;;;;;;5053569;28;20404;-78
2021/01/22 11:07:45;;;;;;;7.00;6.40;;;11.70;87.80;;;;;;5053608;28;20496;-79
2021/01/22 11:10:12;;;;;;;7.40;5.67;;;11.50;88.70;;;;;;5051390;28;20373;-79
2021/01/22 11:12:37;;;;;;;6.70;6.20;;;11.30;89.50;;;;;;5066785;28;20466;-79
2021/01/22 11:15:10;;;;;;;8.37;6.87;;;11.20;90.00;;;;;;5063862;28;20462;-80
2021/01/22 11:17:36;;;;;;;6.93;6.43;;;11.00;90.30;;;;;;5052490;28;20185;-79
2021/01/22 11:20:05;;;;;;;8.03;7.50;;;10.90;90.70;;;;;;5051635;28;20429;-79
2021/01/22 11:22:32;;;;;;;6.53;6.03;;;10.80;91.00;;;;;;5050419;28;20433;-79
2021/01/22 11:24:58;;;;;;;7.17;6.53;;;10.80;91.10;;;;;;5051951;28;20511;-88
2021/01/22 11:27:25;;;;;;;7.00;6.30;;;10.70;91.20;;;;;;5053718;28;20460;-88
2021/01/22 11:29:51;;;;;;;6.60;5.90;;;10.60;91.40;;;;;;5051331;28;20434;-79
2021/01/22 11:32:18;;;;;;;7.93;6.83;;;10.50;91.50;;;;;;5051984;28;20490;-79
2021/01/22 11:34:44;;;;;;;7.10;6.40;;;10.50;91.90;;;;;;5053267;28;20417;-80
2021/01/22 11:37:10;;;;;;;6.63;6.03;;;10.40;92.10;;;;;;5050927;28;20410;-79
2021/01/22 11:39:37;;;;;;;6.67;5.97;;;10.30;92.30;;;;;;5034602;28;20433;-79
2021/01/22 11:42:04;;;;;;;5.93;5.53;;;10.30;92.40;;;;;;5052261;28;20503;-79
2021/01/22 11:44:31;;;;;;;6.30;5.90;;;10.30;92.50;;;;;;5052674;28;20829;-79
2021/01/22 11:46:56;;;;;;;7.60;6.90;;;10.20;92.50;;;;;;5051041;28;20498;-80
2021/01/22 11:49:22;;;;;;;5.40;4.80;;;10.20;92.60;;;;;;5052293;28;20448;-80
2021/01/22 11:51:48;;;;;;;8.83;8.13;;;10.20;92.30;;;;;;5052068;28;20452;-79
2021/01/22 11:54:14;;;;;;;7.60;6.90;;;10.20;92.20;;;;;;5050182;28;20182;-80
2021/01/22 11:56:39;;;;;;;8.80;8.00;;;10.10;92.40;;;;;;5051436;28;20228;-80
2021/01/22 11:59:08;;;;;;;6.80;6.20;;;10.20;92.70;;;;;;5051932;28;20217;-80
2021/01/22 12:01:35;;;;;;;6.90;6.40;;;10.10;92.70;;;;;;5052789;28;20178;-80
2021/01/22 12:04:00;;;;;;;7.13;6.20;;;10.20;92.50;;;;;;5052949;28;20453;-78
2021/01/22 12:06:26;;;;;;;6.80;4.83;;;10.20;92.70;;;;;;5052994;28;20504;-79
2021/01/22 12:08:52;;;;;;;8.57;5.60;;;10.30;92.50;;;;;;5051162;28;20185;-79
2021/01/22 12:11:18;;;;;;;7.53;4.60;;;10.40;92.20;;;;;;5048399;28;20205;-78
2021/01/22 12:13:43;;;;;;;8.53;4.93;;;10.40;92.10;;;;;;5051269;28;20256;-78
2021/01/22 12:16:09;;;;;;;7.80;5.03;;;10.40;91.70;;;;;;5050802;28;20439;-78
2021/01/22 12:18:35;;;;;;;5.10;4.60;;;10.40;91.70;;;;;;5034532;28;20174;-78
2021/01/22 12:21:01;;;;;;;8.07;5.10;;;10.50;91.80;;;;;;5051044;28;20515;-80
2021/01/22 12:23:27;;;;;;;6.00;5.40;;;10.50;91.70;;;;;;5051358;28;20185;-79
2021/01/22 12:25:52;;;;;;;6.00;5.50;;;10.60;91.60;;;;;;5051999;28;20420;-79
2021/01/22 12:28:18;;;;;;;5.97;5.50;;;10.60;91.20;;;;;;5051789;28;20181;-78
2021/01/22 12:30:44;;;;;;;6.33;4.90;;;10.50;91.20;;;;;;5055624;28;20257;-79
2021/01/22 12:33:11;;;;;;;6.23;5.73;;;10.40;91.20;;;;;;5051051;28;20490;-79
2021/01/22 12:35:37;;;;;;;6.30;5.70;;;10.40;91.00;;;;;;5051778;28;20185;-77
2021/01/22 12:38:03;;;;;;;6.60;6.00;;;10.40;91.20;;;;;;5051097;28;20912;-78
2021/01/22 12:40:29;;;;;;;5.87;5.33;;;10.40;91.50;;;;;;5052276;28;20630;-76
2021/01/22 12:42:54;;;;;;;6.47;5.87;;;10.30;91.20;;;;;;5051838;28;20475;-79
2021/01/22 12:45:24;;;;;;;6.07;5.67;;;10.40;91.30;;;;;;5067162;28;20407;-75
2021/01/22 12:47:51;;;;;;;10.23;5.50;;;10.50;91.40;;;;;;5069879;28;20205;-73
2021/01/22 12:50:18;;;;;;;6.15;5.53;;;10.50;90.90;;;;;;5070985;28;20937;-75
2021/01/22 12:52:44;;;;;;;6.27;5.40;;;10.50;90.50;;;;;;5060344;28;20185;-73
2021/01/22 12:55:10;;;;;;;6.07;5.17;;;10.40;90.10;;;;;;5054938;28;20405;-76